Time;durP1;ratioP1;P1;durP2;ratioP2;P2;SDS_P1;SDS_P2;PMS_P1;PMS_P2;Temp;Humidity;BMP_temperature;BMP_pressure;BME280_temperature;BME280_humidity;BME280_pressure;Samples;Min_cycle;Max_cycle;Signal;HPM_P1;HPM_P2
2024/01/01 00:01:55;;;;;;;78.93;56.33;;;5.20;99.90;;;;;;4987149;28;20252;-84
2024/01/01 00:04:24;;;;;;;93.63;65.73;;;5.20;99.90;;;;;;5007119;28;20230;-82
2024/01/01 00:06:51;;;;;;;85.77;59.03;;;5.20;99.90;;;;;;5005210;28;20241;-85
2024/01/01 00:09:17;;;;;;;75.63;52.20;;;5.20;99.90;;;;;;5008389;28;20249;-83
2024/01/01 00:11:44;;;;;;;72.57;50.67;;;5.20;99.90;;;;;;5008658;28;20256;-83
2024/01/01 00:14:12;;;;;;;64.37;46.40;;;5.10;99.90;;;;;;4991956;28;20317;-82
2024/01/01 00:16:39;;;;;;;57.40;38.87;;;5.10;99.90;;;;;;5015384;28;20226;-83
2024/01/01 00:19:06;;;;;;;56.17;39.40;;;5.10;99.90;;;;;;4996157;28;20307;-83
2024/01/01 00:21:34;;;;;;;63.57;42.77;;;5.00;99.90;;;;;;4989591;28;20233;-84
2024/01/01 00:24:02;;;;;;;59.30;41.53;;;5.00;99.90;;;;;;5010831;28;20317;-85
2024/01/01 00:26:28;;;;;;;47.50;32.93;;;5.00;99.90;;;;;;5005558;28;20664;-86
2024/01/01 00:29:02;;;;;;;48.00;31.67;;;4.90;99.90;;;;;;5008362;28;20875;-85
2024/01/01 00:31:28;;;;;;;55.53;37.33;;;4.90;99.90;;;;;;5005562;28;20244;-84
2024/01/01 00:33:55;;;;;;;39.07;25.00;;;4.90;99.90;;;;;;4989243;28;20826;-84
2024/01/01 00:36:22;;;;;;;40.10;25.87;;;4.80;99.90;;;;;;5005010;28;20260;-83
2024/01/01 00:38:51;;;;;;;34.67;21.13;;;4.80;99.90;;;;;;4990088;28;20257;-83
2024/01/01 00:41:17;;;;;;;44.93;26.90;;;4.70;99.90;;;;;;5005589;28;20230;-85
2024/01/01 00:43:44;;;;;;;35.73;24.07;;;4.70;99.90;;;;;;4990933;28;20256;-83
2024/01/01 00:46:11;;;;;;;39.63;27.07;;;4.70;99.90;;;;;;4991141;28;20719;-86
2024/01/01 00:48:38;;;;;;;43.87;28.60;;;4.60;99.90;;;;;;4986500;28;20324;-85
2024/01/01 00:51:05;;;;;;;36.27;24.43;;;4.60;99.90;;;;;;5004256;28;20967;-83
2024/01/01 00:53:33;;;;;;;32.33;21.27;;;4.50;99.90;;;;;;5004127;28;20223;-84
2024/01/01 00:56:02;;;;;;;30.00;19.97;;;4.50;99.90;;;;;;5007041;28;20252;-85
2024/01/01 00:58:29;;;;;;;34.57;20.33;;;4.40;99.90;;;;;;4989287;28;20336;-86
2024/01/01 01:00:57;;;;;;;39.00;27.17;;;4.40;99.90;;;;;;5018951;28;20234;-82
2024/01/01 01:03:24;;;;;;;32.50;21.00;;;4.30;99.90;;;;;;4988652;28;20314;-83
2024/01/01 01:05:51;;;;;;;38.83;25.03;;;4.30;99.90;;;;;;4983687;28;20311;-83
2024/01/01 01:08:18;;;;;;;43.00;26.90;;;4.30;99.90;;;;;;4988612;28;20314;-84
2024/01/01 01:10:45;;;;;;;34.83;22.93;;;4.30;99.90;;;;;;4988318;28;20237;-84
2024/01/01 01:13:13;;;;;;;31.47;19.77;;;4.20;99.90;;;;;;5003744;28;20218;-86
2024/01/01 01:15:40;;;;;;;31.70;19.70;;;4.20;99.90;;;;;;4987956;28;20243;-83
2024/01/01 01:18:07;;;;;;;24.80;15.30;;;4.20;99.90;;;;;;4979278;28;20235;-84
2024/01/01 01:20:34;;;;;;;20.90;15.17;;;4.20;99.90;;;;;;4992250;28;20234;-84
2024/01/01 01:23:01;;;;;;;22.30;14.97;;;4.20;99.90;;;;;;4991060;28;20589;-85
2024/01/01 01:25:29;;;;;;;25.60;14.50;;;4.20;99.90;;;;;;4987042;28;20228;-83
2024/01/01 01:27:55;;;;;;;24.53;14.67;;;4.20;99.90;;;;;;4979620;28;21634;-83
2024/01/01 01:30:24;;;;;;;21.83;14.27;;;4.20;99.90;;;;;;4986469;28;20233;-84
2024/01/01 01:32:50;;;;;;;24.23;12.80;;;4.30;99.90;;;;;;4988422;28;20235;-85
2024/01/01 01:35:17;;;;;;;18.87;11.67;;;4.30;99.90;;;;;;5007231;28;20233;-83
2024/01/01 01:37:45;;;;;;;19.87;11.07;;;4.40;99.90;;;;;;5010900;28;20264;-83
2024/01/01 01:40:12;;;;;;;17.47;10.27;;;4.50;99.90;;;;;;4989837;28;20283;-82
2024/01/01 01:42:39;;;;;;;14.77;9.67;;;4.50;99.90;;;;;;4989719;28;20289;-83
2024/01/01 01:45:07;;;;;;;13.73;9.37;;;4.60;99.90;;;;;;4986995;28;20255;-84
2024/01/01 01:47:35;;;;;;;18.10;9.90;;;4.60;99.90;;;;;;5002443;28;20236;-82
2024/01/01 01:50:03;;;;;;;16.70;9.60;;;4.70;99.90;;;;;;4983937;28;20221;-84
2024/01/01 01:52:30;;;;;;;14.00;8.43;;;4.70;99.90;;;;;;4982995;28;20442;-84
2024/01/01 01:54:57;;;;;;;15.17;8.33;;;4.80;99.90;;;;;;5005721;28;20218;-84
2024/01/01 01:57:25;;;;;;;15.93;7.70;;;4.80;99.90;;;;;;4987759;28;20222;-85
2024/01/01 01:59:52;;;;;;;14.07;8.80;;;4.80;99.90;;;;;;4984608;28;20227;-84
2024/01/01 02:02:22;;;;;;;16.27;7.70;;;4.90;99.90;;;;;;4999281;28;20218;-84
2024/01/01 02:04:50;;;;;;;14.27;6.73;;;4.90;99.90;;;;;;4987853;28;20275;-85
2024/01/01 02:07:17;;;;;;;13.00;7.07;;;4.90;99.90;;;;;;4986489;28;20320;-83
2024/01/01 02:09:44;;;;;;;14.23;7.07;;;5.00;99.90;;;;;;5019447;28;20320;-83
2024/01/01 02:12:11;;;;;;;15.03;6.80;;;5.00;99.90;;;;;;5018343;28;20228;-84
2024/01/01 02:14:38;;;;;;;12.00;6.10;;;5.00;99.90;;;;;;4977569;28;20242;-85
2024/01/01 02:17:05;;;;;;;10.53;6.70;;;5.00;99.90;;;;;;4999400;28;21137;-83
2024/01/01 02:19:32;;;;;;;10.83;5.83;;;5.00;99.90;;;;;;4985686;28;20712;-82
2024/01/01 02:22:00;;;;;;;10.83;5.70;;;5.00;99.90;;;;;;4988293;28;20253;-83
2024/01/01 02:24:28;;;;;;;13.73;6.70;;;5.00;99.90;;;;;;5012887;28;20327;-82
2024/01/01 02:26:55;;;;;;;10.13;5.80;;;5.00;99.90;;;;;;4983488;28;20318;-83
2024/01/01 02:29:22;;;;;;;11.73;5.87;;;5.00;99.90;;;;;;4980806;28;20316;-83
2024/01/01 02:31:49;;;;;;;11.67;5.40;;;5.10;99.90;;;;;;4985165;28;20223;-84
2024/01/01 02:34:18;;;;;;;12.10;6.73;;;5.10;99.90;;;;;;4988920;28;20788;-84
2024/01/01 02:36:45;;;;;;;12.57;6.23;;;5.10;99.90;;;;;;5018635;28;20253;-83
2024/01/01 02:39:12;;;;;;;12.27;7.30;;;5.20;99.90;;;;;;5004853;28;20782;-82
2024/01/01 02:41:40;;;;;;;11.17;6.43;;;5.20;99.90;;;;;;5001968;28;20232;-83
2024/01/01 02:44:06;;;;;;;11.77;6.30;;;5.20;99.90;;;;;;4983582;28;20240;-82
2024/01/01 02:46:34;;;;;;;11.77;6.27;;;5.30;99.90;;;;;;4984417;28;20237;-81
2024/01/01 02:49:00;;;;;;;9.40;6.27;;;5.30;99.90;;;;;;5015401;28;20830;-83
2024/01/01 02:51:27;;;;;;;10.63;7.03;;;5.30;99.90;;;;;;4987496;28;20228;-83
2024/01/01 02:53:54;;;;;;;14.37;6.93;;;5.40;99.90;;;;;;4987215;28;20260;-83
2024/01/01 02:56:24;;;;;;;13.10;7.30;;;5.40;99.90;;;;;;5001062;28;20223;-82
2024/01/01 02:58:53;;;;;;;12.67;7.83;;;5.50;99.90;;;;;;4986527;28;20236;-83
2024/01/01 03:01:20;;;;;;;11.57;7.80;;;5.50;99.90;;;;;;4997607;28;20493;-83
2024/01/01 03:03:47;;;;;;;15.20;8.43;;;5.50;99.90;;;;;;4987082;28;20225;-81
2024/01/01 03:06:17;;;;;;;13.50;8.53;;;5.50;99.90;;;;;;5007845;28;20590;-81
2024/01/01 03:08:44;;;;;;;15.30;9.33;;;5.60;99.90;;;;;;4989102;28;20288;-81
2024/01/01 03:11:10;;;;;;;20.00;9.27;;;5.60;99.90;;;;;;4996943;28;20222;-82
2024/01/01 03:13:37;;;;;;;13.33;9.77;;;5.60;99.90;;;;;;5002304;28;20245;-84
2024/01/01 03:16:07;;;;;;;16.33;10.07;;;5.60;99.90;;;;;;4985334;28;20324;-83
2024/01/01 03:18:34;;;;;;;18.67;11.40;;;5.60;99.90;;;;;;4985327;28;20258;-82
2024/01/01 03:21:01;;;;;;;15.13;10.50;;;5.60;99.90;;;;;;4988352;28;20854;-85
2024/01/01 03:23:28;;;;;;;18.17;10.30;;;5.70;99.90;;;;;;5003769;28;20811;-83
2024/01/01 03:25:54;;;;;;;18.30;11.17;;;5.60;99.90;;;;;;4986645;28;20318;-84
2024/01/01 03:28:21;;;;;;;14.97;10.70;;;5.60;99.90;;;;;;4987787;28;20856;-83
2024/01/01 03:30:48;;;;;;;15.13;10.63;;;5.60;99.90;;;;;;4988405;28;20231;-83
2024/01/01 03:33:16;;;;;;;18.00;11.40;;;5.60;99.90;;;;;;4983227;28;20243;-84
2024/01/01 03:35:43;;;;;;;16.97;11.37;;;5.50;99.90;;;;;;5017913;28;20281;-83
2024/01/01 03:38:10;;;;;;;18.13;11.80;;;5.60;99.90;;;;;;4985839;28;20691;-82
2024/01/01 03:40:37;;;;;;;21.80;13.23;;;5.50;99.90;;;;;;5004069;28;20302;-84
2024/01/01 03:43:03;;;;;;;18.23;11.70;;;5.50;99.90;;;;;;5008899;28;20312;-83
2024/01/01 03:45:30;;;;;;;18.80;12.23;;;5.50;99.90;;;;;;5016187;28;21227;-83
2024/01/01 03:47:57;;;;;;;17.13;11.77;;;5.60;99.90;;;;;;4998135;28;20525;-82
2024/01/01 03:50:25;;;;;;;17.23;11.87;;;5.60;99.90;;;;;;5022824;28;20226;-82
2024/01/01 03:52:52;;;;;;;17.07;12.20;;;5.60;99.90;;;;;;4993943;28;20231;-82
2024/01/01 03:55:19;;;;;;;20.10;12.17;;;5.60;99.90;;;;;;5004340;28;20295;-81
2024/01/01 03:57:47;;;;;;;16.40;11.43;;;5.70;99.90;;;;;;4997338;28;20764;-81
2024/01/01 04:00:15;;;;;;;17.73;11.90;;;5.70;99.90;;;;;;4999502;28;20232;-82
2024/01/01 04:02:42;;;;;;;19.80;12.23;;;5.70;99.90;;;;;;5016193;28;20254;-82
2024/01/01 04:05:10;;;;;;;17.53;12.20;;;5.70;99.90;;;;;;4991519;28;20226;-83
2024/01/01 04:07:38;;;;;;;16.27;11.73;;;5.70;99.90;;;;;;4994871;28;20305;-82
2024/01/01 04:10:08;;;;;;;18.60;12.10;;;5.70;99.90;;;;;;4988016;28;20978;-82
2024/01/01 04:12:35;;;;;;;17.30;11.47;;;5.70;99.90;;;;;;4993831;28;20231;-82
2024/01/01 04:15:03;;;;;;;18.03;11.50;;;5.80;99.90;;;;;;4991667;28;20315;-81
2024/01/01 04:17:31;;;;;;;16.63;11.50;;;5.80;99.90;;;;;;5004957;28;20756;-82
2024/01/01 04:19:58;;;;;;;17.37;11.83;;;5.80;99.90;;;;;;4992754;28;20336;-81
2024/01/01 04:22:25;;;;;;;15.70;10.73;;;5.80;99.90;;;;;;4993385;28;21120;-82
2024/01/01 04:24:53;;;;;;;18.67;11.43;;;5.80;99.90;;;;;;5010231;28;20239;-82
2024/01/01 04:27:20;;;;;;;16.87;11.43;;;5.80;99.90;;;;;;5002858;28;20225;-82
2024/01/01 04:29:47;;;;;;;18.80;11.03;;;5.80;99.90;;;;;;5009799;28;20820;-82
2024/01/01 04:32:14;;;;;;;17.47;10.50;;;5.90;99.90;;;;;;4990531;28;20237;-83
2024/01/01 04:34:41;;;;;;;16.30;10.97;;;5.90;99.90;;;;;;5011725;28;20228;-82
2024/01/01 04:37:08;;;;;;;18.13;10.80;;;5.90;99.90;;;;;;4983384;28;20236;-83
2024/01/01 04:39:35;;;;;;;17.63;10.70;;;5.90;99.90;;;;;;4993071;28;20749;-82
2024/01/01 04:42:04;;;;;;;17.07;9.63;;;5.90;99.90;;;;;;5013862;28;20318;-83
2024/01/01 04:44:31;;;;;;;16.40;10.07;;;5.90;99.90;;;;;;4991596;28;20258;-83
2024/01/01 04:47:00;;;;;;;14.77;9.33;;;5.90;99.90;;;;;;5007449;28;20221;-82
2024/01/01 04:49:27;;;;;;;16.33;9.87;;;5.90;99.90;;;;;;5001713;28;20236;-82
2024/01/01 04:51:54;;;;;;;16.57;10.23;;;5.90;99.90;;;;;;5017930;28;20234;-81
2024/01/01 04:54:20;;;;;;;17.00;9.73;;;6.00;99.90;;;;;;5010890;28;20220;-82
2024/01/01 04:56:47;;;;;;;14.67;10.03;;;5.90;99.90;;;;;;4992624;28;20237;-82
2024/01/01 04:59:16;;;;;;;13.73;9.00;;;6.00;99.90;;;;;;5011939;28;20238;-82
2024/01/01 05:01:42;;;;;;;13.33;8.80;;;6.00;99.90;;;;;;4994175;28;20230;-82
2024/01/01 05:04:09;;;;;;;15.40;9.23;;;6.00;99.90;;;;;;4989942;28;20223;-84
2024/01/01 05:06:36;;;;;;;13.63;8.90;;;6.00;99.90;;;;;;5009854;28;20744;-83
2024/01/01 05:09:03;;;;;;;13.17;8.47;;;6.00;99.90;;;;;;5000136;28;20231;-82
2024/01/01 05:11:30;;;;;;;12.77;9.47;;;6.00;99.90;;;;;;4993348;28;20225;-82
2024/01/01 05:13:57;;;;;;;13.83;9.20;;;6.00;99.90;;;;;;5008258;28;20223;-82
2024/01/01 05:16:25;;;;;;;13.33;8.80;;;5.90;99.90;;;;;;5011360;28;20281;-80
2024/01/01 05:18:52;;;;;;;13.90;8.77;;;5.90;99.90;;;;;;4997750;28;20291;-81
2024/01/01 05:21:18;;;;;;;14.43;8.13;;;5.90;99.90;;;;;;5001547;28;20264;-81
2024/01/01 05:23:45;;;;;;;13.00;8.40;;;5.90;99.90;;;;;;5018166;28;20214;-80
2024/01/01 05:26:12;;;;;;;14.50;7.83;;;5.90;99.90;;;;;;5012599;28;20924;-80
2024/01/01 05:28:39;;;;;;;10.87;7.20;;;5.90;99.90;;;;;;4998108;28;20301;-80
2024/01/01 05:31:05;;;;;;;12.90;7.40;;;5.90;99.90;;;;;;5000357;28;20253;-81
2024/01/01 05:33:34;;;;;;;12.90;7.43;;;5.90;99.90;;;;;;4995661;28;20324;-81
2024/01/01 05:36:00;;;;;;;12.53;7.63;;;5.90;99.90;;;;;;5003146;28;20630;-81
2024/01/01 05:38:27;;;;;;;12.47;6.87;;;5.90;99.90;;;;;;5013410;28;20230;-80
2024/01/01 05:40:54;;;;;;;11.10;7.13;;;5.90;99.90;;;;;;5013609;28;20257;-81
2024/01/01 05:43:22;;;;;;;10.60;7.10;;;5.90;99.90;;;;;;4998571;28;20218;-81
2024/01/01 05:45:49;;;;;;;13.13;7.03;;;6.00;99.90;;;;;;4996675;28;20262;-81
2024/01/01 05:48:15;;;;;;;14.57;6.83;;;5.90;99.90;;;;;;5011773;28;20710;-81
2024/01/01 05:50:44;;;;;;;11.17;6.70;;;6.00;99.90;;;;;;5000925;28;20228;-80
2024/01/01 05:53:10;;;;;;;10.20;5.73;;;6.00;99.90;;;;;;5000202;28;20708;-81
2024/01/01 05:55:37;;;;;;;12.87;7.00;;;6.00;99.90;;;;;;4998377;28;20285;-81
2024/01/01 05:58:04;;;;;;;12.10;6.23;;;6.00;99.90;;;;;;4998363;28;20234;-81
2024/01/01 06:00:36;;;;;;;13.37;6.40;;;6.00;99.90;;;;;;5015466;28;20316;-81
2024/01/01 06:03:04;;;;;;;15.97;6.70;;;6.00;99.90;;;;;;5014576;28;20235;-81
2024/01/01 06:05:33;;;;;;;12.90;5.90;;;6.00;99.90;;;;;;5015165;28;20233;-81
2024/01/01 06:08:02;;;;;;;9.30;6.57;;;6.00;99.90;;;;;;5016627;28;20782;-80
2024/01/01 06:10:29;;;;;;;11.77;5.93;;;6.10;99.90;;;;;;5016349;28;20336;-81
2024/01/01 06:12:57;;;;;;;10.10;5.20;;;6.00;99.90;;;;;;5001720;28;20230;-82
2024/01/01 06:15:24;;;;;;;7.73;5.57;;;6.00;99.90;;;;;;5016343;28;20223;-82
2024/01/01 06:17:52;;;;;;;11.70;6.30;;;6.10;99.90;;;;;;4992134;28;20285;-81
2024/01/01 06:20:19;;;;;;;9.70;5.57;;;6.10;99.90;;;;;;5015575;28;20250;-81
2024/01/01 06:22:47;;;;;;;11.83;5.30;;;6.10;99.90;;;;;;4988550;28;20220;-81
2024/01/01 06:25:17;;;;;;;10.47;5.10;;;6.10;99.90;;;;;;4991845;28;20243;-82
2024/01/01 06:27:44;;;;;;;11.67;6.57;;;6.10;99.90;;;;;;4991914;28;20289;-82
2024/01/01 06:30:11;;;;;;;8.00;4.47;;;6.20;99.90;;;;;;4991204;28;20832;-82
2024/01/01 06:32:38;;;;;;;9.20;5.10;;;6.10;99.90;;;;;;4999276;28;20318;-81
2024/01/01 06:35:06;;;;;;;7.57;4.90;;;6.10;99.90;;;;;;4998034;28;21161;-82
2024/01/01 06:37:33;;;;;;;8.03;5.00;;;6.10;99.90;;;;;;4993534;28;20314;-82
2024/01/01 06:40:00;;;;;;;8.90;4.90;;;6.10;99.90;;;;;;4996211;28;20242;-81
2024/01/01 06:42:28;;;;;;;8.57;5.03;;;6.10;99.90;;;;;;4992583;28;20260;-81
2024/01/01 06:45:03;;;;;;;11.07;5.00;;;6.10;99.90;;;;;;5013760;28;20639;-81
2024/01/01 06:47:30;;;;;;;8.53;4.10;;;6.10;99.90;;;;;;4988427;28;20261;-81
2024/01/01 06:49:57;;;;;;;8.43;4.60;;;6.10;99.90;;;;;;5011955;28;20817;-83
2024/01/01 06:52:24;;;;;;;7.73;4.40;;;6.00;99.90;;;;;;5006662;28;20225;-81
2024/01/01 06:54:51;;;;;;;10.90;4.43;;;5.90;99.90;;;;;;4990427;28;20285;-83
2024/01/01 06:57:18;;;;;;;11.53;4.70;;;5.90;99.90;;;;;;5005727;28;20836;-82
2024/01/01 06:59:46;;;;;;;9.27;4.87;;;5.90;99.90;;;;;;4995466;28;20298;-81
2024/01/01 07:02:13;;;;;;;10.87;4.63;;;5.80;99.90;;;;;;4984865;28;20310;-81
2024/01/01 07:04:39;;;;;;;9.00;4.20;;;5.80;99.90;;;;;;5001785;28;20230;-82
2024/01/01 07:07:06;;;;;;;8.10;4.20;;;5.70;99.90;;;;;;4996713;28;20228;-81
2024/01/01 07:09:33;;;;;;;8.70;4.40;;;5.70;99.90;;;;;;4987528;28;20324;-82
2024/01/01 07:12:16;;;;;;;9.30;4.10;;;5.60;99.90;;;;;;4986662;28;20318;-82
2024/01/01 07:14:43;;;;;;;9.17;4.10;;;5.60;99.90;;;;;;4991035;28;20244;-82
2024/01/01 07:17:11;;;;;;;9.37;4.23;;;5.60;99.90;;;;;;4967731;28;21024;-82
2024/01/01 07:19:38;;;;;;;8.50;3.97;;;5.60;99.90;;;;;;4986425;28;20227;-82
2024/01/01 07:22:05;;;;;;;9.87;3.93;;;5.50;99.90;;;;;;4989029;28;20229;-82
2024/01/01 07:24:31;;;;;;;7.00;3.53;;;5.50;99.90;;;;;;4982859;28;20230;-82
2024/01/01 07:26:58;;;;;;;8.80;4.43;;;5.50;99.90;;;;;;4993197;28;20511;-85
2024/01/01 07:29:25;;;;;;;10.57;4.57;;;5.50;99.90;;;;;;4981680;28;20234;-84
2024/01/01 07:31:51;;;;;;;10.67;4.07;;;5.50;99.90;;;;;;4987763;28;20304;-84
2024/01/01 07:34:20;;;;;;;7.67;4.00;;;5.50;99.90;;;;;;5001487;28;20858;-86
2024/01/01 07:36:47;;;;;;;8.33;3.73;;;5.50;99.90;;;;;;5001255;28;20228;-83
2024/01/01 07:39:19;;;;;;;17.73;3.93;;;5.60;99.90;;;;;;5005958;28;20223;-83
2024/01/01 07:41:45;;;;;;;7.80;4.37;;;5.60;99.90;;;;;;5009106;28;20230;-83
2024/01/01 07:44:13;;;;;;;10.70;4.60;;;5.60;99.90;;;;;;5030485;28;20233;-83
2024/01/01 07:46:40;;;;;;;9.03;4.27;;;5.60;99.90;;;;;;4987743;28;20451;-83
2024/01/01 07:49:07;;;;;;;9.43;3.90;;;5.70;99.90;;;;;;5001071;28;20233;-83
2024/01/01 07:51:36;;;;;;;7.67;3.63;;;5.60;99.90;;;;;;4985771;28;20233;-82
2024/01/01 07:54:02;;;;;;;7.27;3.67;;;5.70;99.90;;;;;;5010568;28;20235;-82
2024/01/01 07:56:28;;;;;;;8.30;4.03;;;5.80;99.90;;;;;;5009960;28;20275;-83
2024/01/01 07:58:55;;;;;;;9.07;4.20;;;5.80;99.90;;;;;;4987935;28;20690;-83
2024/01/01 08:01:22;;;;;;;8.53;4.30;;;5.80;99.90;;;;;;4987898;28;20315;-83
2024/01/01 08:03:49;;;;;;;7.03;3.30;;;5.80;99.90;;;;;;5002984;28;20670;-83
2024/01/01 08:06:17;;;;;;;8.03;3.53;;;5.90;99.90;;;;;;5001983;28;20317;-83
2024/01/01 08:08:45;;;;;;;8.00;4.07;;;5.90;99.90;;;;;;4989282;28;20225;-83
2024/01/01 08:11:12;;;;;;;9.07;3.37;;;5.90;99.90;;;;;;4987017;28;20718;-82
2024/01/01 08:13:39;;;;;;;6.03;3.10;;;5.90;99.90;;;;;;5005438;28;20273;-82
2024/01/01 08:16:06;;;;;;;9.00;4.30;;;5.90;99.90;;;;;;5002959;28;20223;-82
2024/01/01 08:18:33;;;;;;;8.43;4.10;;;5.90;99.90;;;;;;5016696;28;20231;-82
2024/01/01 08:20:59;;;;;;;7.73;3.63;;;5.90;99.90;;;;;;4994971;28;20266;-83
2024/01/01 08:23:26;;;;;;;6.97;3.20;;;5.90;99.90;;;;;;4994651;28;20229;-83
2024/01/01 08:25:57;;;;;;;6.67;3.47;;;6.00;99.90;;;;;;4998137;28;20234;-82
2024/01/01 08:28:23;;;;;;;7.33;3.60;;;5.90;99.90;;;;;;4997571;28;20288;-82
2024/01/01 08:30:50;;;;;;;7.07;3.40;;;6.00;99.90;;;;;;4993059;28;20255;-87
2024/01/01 08:33:17;;;;;;;6.90;3.20;;;6.00;99.90;;;;;;5006236;28;20464;-83
2024/01/01 08:35:44;;;;;;;9.10;3.43;;;6.00;99.90;;;;;;5010537;28;20500;-81
2024/01/01 08:38:10;;;;;;;6.53;3.73;;;6.00;99.90;;;;;;4986750;28;20228;-81
2024/01/01 08:40:37;;;;;;;8.87;3.50;;;6.00;99.90;;;;;;4982921;28;22230;-83
2024/01/01 08:43:06;;;;;;;7.80;4.00;;;6.10;99.90;;;;;;4995744;28;20221;-83
2024/01/01 08:45:32;;;;;;;7.97;4.07;;;6.10;99.90;;;;;;4990875;28;20221;-83
2024/01/01 08:47:59;;;;;;;8.70;4.00;;;6.10;99.90;;;;;;4978928;28;20227;-83
2024/01/01 08:50:26;;;;;;;8.40;3.43;;;6.10;99.90;;;;;;4999155;28;20232;-85
2024/01/01 08:52:52;;;;;;;6.93;3.60;;;6.20;99.90;;;;;;4990022;28;20228;-80
2024/01/01 08:55:19;;;;;;;9.07;4.00;;;6.20;99.90;;;;;;5010941;28;20331;-80
2024/01/01 08:57:46;;;;;;;7.50;3.90;;;6.20;99.90;;;;;;5017172;28;20340;-83
2024/01/01 09:00:16;;;;;;;8.10;3.90;;;6.20;99.90;;;;;;5004093;28;20773;-83
2024/01/01 09:02:43;;;;;;;7.93;3.80;;;6.30;99.90;;;;;;4983916;28;20425;-83
2024/01/01 09:05:09;;;;;;;7.90;3.37;;;6.30;99.90;;;;;;5001711;28;20231;-83
2024/01/01 09:07:36;;;;;;;7.57;3.40;;;6.30;99.90;;;;;;5005117;28;20975;-82
2024/01/01 09:10:04;;;;;;;8.60;3.67;;;6.30;99.90;;;;;;5005566;28;20259;-82
2024/01/01 09:12:31;;;;;;;7.07;3.67;;;6.30;99.90;;;;;;4986000;28;20247;-82
2024/01/01 09:14:58;;;;;;;7.13;2.80;;;6.30;99.90;;;;;;5019264;28;20822;-82
2024/01/01 09:17:26;;;;;;;9.53;3.43;;;6.30;99.90;;;;;;4986466;28;20314;-82
2024/01/01 09:19:53;;;;;;;6.43;3.23;;;6.30;99.90;;;;;;5015934;28;20223;-83
2024/01/01 09:22:20;;;;;;;10.60;3.97;;;6.30;99.90;;;;;;5000349;28;20247;-83
2024/01/01 09:24:46;;;;;;;7.70;3.20;;;6.30;99.90;;;;;;4992616;28;20294;-83
2024/01/01 09:27:13;;;;;;;10.33;3.93;;;6.30;99.90;;;;;;4980250;28;20237;-84
2024/01/01 09:29:39;;;;;;;8.10;3.53;;;6.20;99.90;;;;;;4978405;28;20314;-82
2024/01/01 09:32:06;;;;;;;9.30;3.70;;;6.20;99.90;;;;;;5011475;28;20236;-82
2024/01/01 09:34:34;;;;;;;9.60;3.60;;;6.10;99.90;;;;;;5000774;28;20748;-82
2024/01/01 09:37:01;;;;;;;16.60;8.07;;;6.10;99.90;;;;;;4982917;28;20256;-82
2024/01/01 09:39:28;;;;;;;9.57;4.80;;;6.00;99.90;;;;;;4981865;28;20230;-82
2024/01/01 09:41:55;;;;;;;10.43;3.97;;;6.00;99.90;;;;;;5006050;28;20350;-82
2024/01/01 09:44:22;;;;;;;8.50;3.47;;;6.00;99.90;;;;;;5017860;28;20604;-82
2024/01/01 09:46:48;;;;;;;10.13;4.13;;;5.90;99.90;;;;;;4982509;28;20794;-81
2024/01/01 09:49:15;;;;;;;14.60;3.97;;;5.90;99.90;;;;;;5019425;28;20233;-83
2024/01/01 09:51:43;;;;;;;11.23;4.50;;;5.80;99.90;;;;;;4985276;28;20225;-83
2024/01/01 09:54:10;;;;;;;13.73;3.97;;;5.80;99.90;;;;;;5003610;28;20284;-82
2024/01/01 09:56:36;;;;;;;11.63;3.97;;;5.80;99.90;;;;;;4988389;28;20342;-82
2024/01/01 09:59:03;;;;;;;12.77;4.00;;;5.70;99.90;;;;;;4985269;28;20244;-82
2024/01/01 10:01:33;;;;;;;8.90;3.93;;;5.70;99.90;;;;;;4986171;28;20230;-82
2024/01/01 10:04:02;;;;;;;10.77;4.20;;;5.70;99.90;;;;;;5005592;28;20230;-82
2024/01/01 10:06:29;;;;;;;15.47;4.27;;;5.60;99.90;;;;;;4992931;28;20229;-81
2024/01/01 10:09:07;;;;;;;9.27;4.17;;;5.60;99.90;;;;;;5007427;28;20240;-82
2024/01/01 10:11:34;;;;;;;11.87;4.30;;;5.60;99.90;;;;;;5004615;28;20806;-82
2024/01/01 10:14:03;;;;;;;12.37;3.70;;;5.60;99.90;;;;;;5004899;28;20310;-82
2024/01/01 10:16:30;;;;;;;12.23;4.20;;;5.60;99.90;;;;;;5005837;28;20234;-82
2024/01/01 10:18:59;;;;;;;10.73;4.97;;;5.60;99.90;;;;;;4990837;28;20230;-82
2024/01/01 10:21:27;;;;;;;9.80;3.67;;;5.60;99.90;;;;;;4984792;28;20225;-82
2024/01/01 10:23:54;;;;;;;17.40;4.97;;;5.60;99.90;;;;;;4999985;28;20230;-82
2024/01/01 10:26:22;;;;;;;10.90;3.80;;;5.60;99.90;;;;;;5000132;28;20336;-82
2024/01/01 10:28:49;;;;;;;11.83;3.50;;;5.70;99.90;;;;;;4983789;28;20320;-83
2024/01/01 10:31:16;;;;;;;10.60;3.63;;;5.70;99.90;;;;;;4996879;28;20258;-82
2024/01/01 10:33:45;;;;;;;10.80;4.10;;;5.70;99.90;;;;;;5000557;28;20258;-83
2024/01/01 10:36:16;;;;;;;7.87;3.50;;;5.70;99.90;;;;;;5007667;28;20218;-83
2024/01/01 10:38:45;;;;;;;9.53;3.60;;;5.80;99.90;;;;;;4987123;28;20221;-83
2024/01/01 10:41:13;;;;;;;10.07;3.33;;;5.80;99.90;;;;;;4984992;28;20226;-82
2024/01/01 10:43:43;;;;;;;13.07;3.60;;;5.80;99.90;;;;;;4986147;28;20313;-82
2024/01/01 10:46:13;;;;;;;11.90;3.33;;;5.80;99.90;;;;;;4989903;28;20328;-82
2024/01/01 10:48:41;;;;;;;13.07;3.90;;;5.80;99.90;;;;;;5004836;28;20280;-83
2024/01/01 10:51:24;;;;;;;14.90;3.67;;;5.80;99.90;;;;;;5013960;28;20223;-82
2024/01/01 10:54:10;;;;;;;12.20;3.83;;;5.90;99.90;;;;;;5007219;28;20258;-82
2024/01/01 10:56:46;;;;;;;10.73;4.23;;;5.90;99.90;;;;;;4990793;28;20229;-84
2024/01/01 10:59:19;;;;;;;6.50;3.30;;;6.00;99.90;;;;;;4986684;28;20329;-83
2024/01/01 11:01:50;;;;;;;10.07;3.23;;;6.00;99.90;;;;;;4976830;28;20226;-82
2024/01/01 11:04:20;;;;;;;11.37;4.23;;;6.00;99.90;;;;;;4993020;28;21130;-83
2024/01/01 11:06:47;;;;;;;11.50;3.53;;;6.10;99.90;;;;;;4998963;28;20309;-82
2024/01/01 11:09:36;;;;;;;9.40;3.27;;;6.10;99.90;;;;;;4997718;28;20223;-83
2024/01/01 11:12:05;;;;;;;10.03;3.47;;;6.20;99.90;;;;;;5002300;28;20232;-83
2024/01/01 11:14:37;;;;;;;8.10;2.97;;;6.20;99.90;;;;;;4983695;28;20393;-83
2024/01/01 11:17:06;;;;;;;10.60;2.97;;;6.20;99.90;;;;;;4991003;28;20877;-83
2024/01/01 11:19:38;;;;;;;11.53;2.97;;;6.30;99.90;;;;;;5008154;28;20702;-83
2024/01/01 11:22:30;;;;;;;8.17;3.07;;;6.30;99.90;;;;;;4979078;28;20231;-84
2024/01/01 11:24:59;;;;;;;11.43;3.43;;;6.30;99.90;;;;;;5006970;28;20287;-83
2024/01/01 11:27:26;;;;;;;10.67;3.20;;;6.30;99.90;;;;;;5005031;28;21732;-82
2024/01/01 11:29:59;;;;;;;8.57;2.77;;;6.30;99.90;;;;;;5009628;28;20219;-83
2024/01/01 11:32:26;;;;;;;11.53;3.53;;;6.40;99.90;;;;;;5004049;28;20251;-82
2024/01/01 11:35:07;;;;;;;6.73;2.93;;;6.40;99.90;;;;;;4990938;28;20230;-83
2024/01/01 11:37:34;;;;;;;8.77;2.77;;;6.50;99.90;;;;;;5021498;28;20256;-83
2024/01/01 11:40:02;;;;;;;9.27;3.27;;;6.50;99.90;;;;;;5013460;28;20236;-82
2024/01/01 11:42:29;;;;;;;8.47;2.53;;;6.50;99.90;;;;;;4987717;28;20220;-82
2024/01/01 11:45:10;;;;;;;12.60;3.60;;;6.60;99.90;;;;;;4986698;28;20346;-82
2024/01/01 11:47:38;;;;;;;8.47;2.97;;;6.60;99.90;;;;;;4985008;28;20248;-83
2024/01/01 11:50:06;;;;;;;7.23;2.90;;;6.60;99.90;;;;;;4981588;28;20867;-81
2024/01/01 11:52:33;;;;;;;10.57;2.87;;;6.70;99.90;;;;;;5000729;28;20249;-81
2024/01/01 11:55:00;;;;;;;13.87;3.30;;;6.70;99.90;;;;;;4983928;28;20323;-82
2024/01/01 11:57:27;;;;;;;9.30;3.07;;;6.80;99.90;;;;;;4983032;28;20235;-81
2024/01/01 11:59:55;;;;;;;8.40;2.83;;;6.80;99.90;;;;;;4988933;28;20938;-82
2024/01/01 12:02:24;;;;;;;10.13;2.80;;;6.80;99.90;;;;;;4989746;28;20226;-82
2024/01/01 12:04:51;;;;;;;5.67;2.47;;;6.80;99.90;;;;;;4997774;28;20255;-81
2024/01/01 12:07:29;;;;;;;9.30;3.00;;;6.80;99.90;;;;;;5007747;28;20228;-82
2024/01/01 12:10:04;;;;;;;9.97;4.27;;;6.80;99.90;;;;;;5000551;28;20232;-81
2024/01/01 12:12:30;;;;;;;9.60;3.50;;;6.80;99.90;;;;;;4977639;28;20233;-81
2024/01/01 12:15:11;;;;;;;7.97;2.77;;;6.80;99.90;;;;;;4999831;28;20332;-82
2024/01/01 12:17:43;;;;;;;12.17;4.00;;;6.90;99.90;;;;;;5000763;28;20318;-81
2024/01/01 12:20:13;;;;;;;7.87;3.03;;;6.90;99.90;;;;;;4989644;28;20311;-81
2024/01/01 12:22:40;;;;;;;10.80;3.30;;;6.90;99.90;;;;;;4966040;28;20332;-81
2024/01/01 12:25:13;;;;;;;9.73;3.03;;;6.90;99.90;;;;;;4994748;28;21180;-81
2024/01/01 12:27:40;;;;;;;8.37;3.13;;;6.90;99.90;;;;;;4989769;28;20847;-82
2024/01/01 12:30:08;;;;;;;6.40;2.83;;;6.90;99.90;;;;;;4991625;28;20263;-81
2024/01/01 12:32:34;;;;;;;9.63;2.83;;;6.90;99.90;;;;;;4967493;28;20292;-82
2024/01/01 12:35:03;;;;;;;11.57;3.00;;;6.90;99.90;;;;;;5003791;28;20230;-82
2024/01/01 12:37:31;;;;;;;10.43;2.60;;;6.90;99.90;;;;;;4982943;28;20251;-82
2024/01/01 12:39:58;;;;;;;10.17;3.47;;;6.90;99.90;;;;;;5003380;28;20229;-82
2024/01/01 12:42:25;;;;;;;11.20;3.00;;;6.90;99.90;;;;;;5005482;28;20237;-84
2024/01/01 12:44:52;;;;;;;10.00;3.87;;;6.90;99.90;;;;;;4989670;28;20250;-83
2024/01/01 12:47:19;;;;;;;7.97;2.90;;;6.90;99.90;;;;;;4985788;28;20231;-83
2024/01/01 12:49:46;;;;;;;10.47;2.90;;;6.90;99.90;;;;;;5001136;28;20240;-83
2024/01/01 12:52:15;;;;;;;5.43;2.83;;;6.90;99.90;;;;;;4987221;28;20672;-83